Time;durP1;ratioP1;P1;durP2;ratioP2;P2;SDS_P1;SDS_P2;PMS_P1;PMS_P2;Temp;Humidity;BMP_temperature;BMP_pressure;BME280_temperature;BME280_humidity;BME280_pressure;Samples;Min_cycle;Max_cycle;Signal;HPM_P1;HPM_P2
2023/07/02 00:04:25;;;;;;;2.53;1.30;;;;;;;21.04;83.16;100212.47;21070591;28;20051;-66
2023/07/02 00:14:27;;;;;;;1.90;1.33;;;;;;;21.01;83.02;100211.81;21071438;28;20052;-66
2023/07/02 00:24:29;;;;;;;1.20;1.00;;;;;;;21.00;82.77;100215.53;21070623;28;20136;-66
2023/07/02 00:34:30;;;;;;;1.35;1.20;;;;;;;20.99;82.52;100207.56;21070023;28;20482;-66
2023/07/02 00:44:32;;;;;;;2.13;1.20;;;;;;;20.98;82.44;100204.03;21051331;28;20402;-66
2023/07/02 00:54:35;;;;;;;1.90;1.55;;;;;;;20.95;82.29;100187.31;21068466;28;20135;-65
2023/07/02 01:04:37;;;;;;;1.77;1.40;;;;;;;20.95;81.58;100179.19;21029556;28;20065;-66
2023/07/02 01:14:42;;;;;;;2.60;1.70;;;;;;;20.93;81.46;100182.09;20969413;28;20304;-66
2023/07/02 01:24:43;;;;;;;;;;;;;;;20.93;80.79;100181.22;20946365;28;20058;-66
2023/07/02 01:34:48;;;;;;;3.17;2.00;;;;;;;20.90;80.42;100193.25;20968077;28;20324;-66
2023/07/02 01:44:51;;;;;;;2.63;1.88;;;;;;;20.82;79.78;100182.47;20972116;28;20106;-65
2023/07/02 01:54:52;;;;;;;2.85;1.92;;;;;;;20.86;79.37;100195.44;20965119;28;20060;-66
2023/07/02 02:04:56;;;;;;;3.17;2.10;;;;;;;20.86;78.80;100208.16;20968481;28;20055;-66
2023/07/02 02:14:58;;;;;;;3.20;2.10;;;;;;;20.84;78.48;100213.72;20982048;28;20219;-66
2023/07/02 02:24:59;;;;;;;4.68;2.60;;;;;;;20.83;78.18;100214.72;20977084;28;20452;-65
2023/07/02 02:35:01;;;;;;;3.75;2.72;;;;;;;20.82;77.65;100223.03;20966505;28;20048;-65
2023/07/02 02:45:04;;;;;;;4.40;2.80;;;;;;;20.81;77.51;100232.16;20956676;28;20044;-66
2023/07/02 02:55:07;;;;;;;4.45;3.25;;;;;;;20.70;77.16;100220.63;20976772;28;20410;-65
2023/07/02 03:05:09;;;;;;;4.35;2.97;;;;;;;20.78;76.86;100232.50;20972292;28;20049;-66
2023/07/02 03:15:11;;;;;;;4.03;3.10;;;;;;;20.76;76.38;100229.06;20976081;28;20056;-66
2023/07/02 03:25:12;;;;;;;5.95;3.88;;;;;;;20.73;75.99;100233.81;20967123;28;20076;-66
2023/07/02 03:35:14;;;;;;;5.07;3.53;;;;;;;20.72;75.64;100229.41;20975809;28;20044;-66
2023/07/02 03:45:16;;;;;;;5.22;3.53;;;;;;;20.71;75.41;100235.84;20951277;28;20043;-66
2023/07/02 03:55:19;;;;;;;6.35;4.07;;;;;;;20.71;75.14;100243.97;20970449;28;20051;-66
2023/07/02 04:05:22;;;;;;;5.93;3.75;;;;;;;20.70;74.95;100257.69;20972195;28;20049;-66
2023/07/02 04:15:25;;;;;;;6.13;4.28;;;;;;;20.69;76.54;100267.63;20964895;28;20048;-66
2023/07/02 04:25:27;;;;;;;6.93;4.45;;;;;;;20.68;75.25;100265.94;20966177;28;20101;-66
2023/07/02 04:35:48;;;;;;;6.57;3.97;;;;;;;20.68;75.94;100265.94;20968638;28;20056;-66
2023/07/02 04:45:50;;;;;;;6.07;3.75;;;;;;;20.67;76.86;100258.03;20958610;28;20053;-66
2023/07/02 04:55:52;;;;;;;6.57;4.30;;;;;;;20.67;76.68;100288.59;20964543;28;20055;-66
2023/07/02 05:05:53;;;;;;;7.25;4.45;;;;;;;20.66;78.06;100295.03;20962761;28;20045;-66
2023/07/02 05:15:55;;;;;;;7.15;4.47;;;;;;;20.64;76.97;100288.94;20958707;28;20074;-65
2023/07/02 05:25:56;;;;;;;7.20;4.28;;;;;;;20.65;77.62;100292.50;20967056;28;20048;-66
2023/07/02 05:35:58;;;;;;;7.53;4.35;;;;;;;20.65;77.72;100298.75;20960303;28;20048;-66
2023/07/02 05:46:00;;;;;;;5.72;4.18;;;;;;;20.64;76.57;100297.06;20981281;28;20044;-66
2023/07/02 05:56:01;;;;;;;8.05;4.88;;;;;;;20.63;76.04;100306.19;20972055;28;20044;-66
2023/07/02 06:06:03;;;;;;;6.40;4.22;;;;;;;20.61;75.33;100305.50;20919755;28;20049;-66
2023/07/02 06:16:05;;;;;;;7.03;3.97;;;;;;;20.64;74.69;100318.69;20945462;28;20223;-66
2023/07/02 06:26:07;;;;;;;6.93;4.65;;;;;;;20.64;74.35;100326.81;20980820;28;20052;-65
2023/07/02 06:36:08;;;;;;;7.00;4.50;;;;;;;20.62;74.00;100315.31;20966758;28;20119;-66
2023/07/02 06:46:13;;;;;;;9.23;4.47;;;;;;;20.59;73.83;100329.16;20960419;28;20044;-66
2023/07/02 06:56:15;;;;;;;8.88;4.90;;;;;;;20.62;73.47;100349.63;20958364;28;20497;-66
2023/07/02 07:06:16;;;;;;;8.23;4.93;;;;;;;20.62;73.43;100353.16;20948593;28;20048;-66
2023/07/02 07:16:18;;;;;;;11.27;4.93;;;;;;;20.65;73.72;100360.94;20950825;28;20041;-66
2023/07/02 07:26:20;;;;;;;8.95;4.60;;;;;;;20.66;74.90;100392.38;20941097;28;20559;-67
2023/07/02 07:36:21;;;;;;;7.97;4.05;;;;;;;20.69;74.95;100402.88;20969663;28;20051;-68
2023/07/02 07:46:23;;;;;;;8.90;5.10;;;;;;;20.72;74.04;100389.00;20969617;28;20053;-68
2023/07/02 07:56:26;;;;;;;8.57;4.57;;;;;;;20.78;73.74;100400.19;20961890;28;20444;-67
2023/07/02 08:06:27;;;;;;;7.75;4.07;;;;;;;20.81;73.14;100402.59;20943534;28;20037;-68
2023/07/02 08:16:29;;;;;;;7.60;4.00;;;;;;;20.96;71.52;100411.72;20970894;28;20068;-68
2023/07/02 08:26:31;;;;;;;6.63;3.83;;;;;;;21.46;69.50;100425.22;20955223;28;20036;-68
2023/07/02 08:36:32;;;;;;;5.47;3.30;;;;;;;21.42;68.58;100429.31;20941399;28;20052;-66
2023/07/02 08:46:34;;;;;;;5.55;3.35;;;;;;;21.58;68.80;100448.22;20947841;28;20048;-67
2023/07/02 08:56:35;;;;;;;5.32;2.92;;;;;;;21.42;67.79;100462.63;20935020;28;20635;-66
2023/07/02 09:06:37;;;;;;;6.05;3.10;;;;;;;21.27;67.90;100465.19;20931768;28;20167;-66
2023/07/02 09:16:41;;;;;;;5.63;3.00;;;;;;;21.15;68.16;100490.88;20934125;28;20490;-66
2023/07/02 09:26:53;;;;;;;3.97;2.77;;;;;;;21.14;69.74;100491.91;20972934;28;21978;-66
2023/07/02 09:36:55;;;;;;;6.82;2.28;;;;;;;21.20;70.48;100479.56;20903862;28;20045;-66
2023/07/02 09:47:05;;;;;;;5.43;3.13;;;;;;;21.31;69.90;100471.09;20914455;28;20033;-65
2023/07/02 09:57:07;;;;;;;4.20;2.58;;;;;;;21.38;70.08;100479.41;20925478;28;20068;-65
2023/07/02 10:07:09;;;;;;;5.40;2.72;;;;;;;21.46;69.73;100489.41;20918366;28;20043;-65
2023/07/02 10:17:11;;;;;;;5.22;2.75;;;;;;;21.49;69.36;100495.31;20927875;28;20037;-65
2023/07/02 10:27:12;;;;;;;7.80;3.00;;;;;;;21.53;67.19;100503.94;20927028;28;20120;-64
2023/07/02 10:37:14;;;;;;;4.00;2.22;;;;;;;21.44;67.34;100513.91;20963475;28;20065;-65
2023/07/02 10:47:16;;;;;;;4.07;2.13;;;;;;;21.44;67.40;100513.91;20959101;28;20036;-64
2023/07/02 10:57:21;;;;;;;4.25;2.00;;;;;;;21.48;66.80;100526.09;20975301;28;20048;-65
2023/07/02 11:07:23;;;;;;;3.28;1.85;;;;;;;21.38;66.48;100528.97;20958159;28;20468;-65
2023/07/02 11:17:26;;;;;;;3.95;2.33;;;;;;;21.48;65.85;100541.53;20953955;28;20056;-65
2023/07/02 11:27:28;;;;;;;4.75;2.17;;;;;;;21.48;65.41;100555.91;20943146;28;20480;-65
2023/07/02 11:37:29;;;;;;;4.78;2.50;;;;;;;21.47;65.51;100550.66;20943142;28;20767;-64
2023/07/02 11:47:31;;;;;;;4.45;2.50;;;;;;;21.46;66.80;100565.22;20959231;28;20609;-65
2023/07/02 11:57:32;;;;;;;5.75;2.63;;;;;;;21.47;67.56;100559.63;20970413;28;20523;-65
2023/07/02 12:07:34;;;;;;;3.40;2.00;;;;;;;21.53;66.88;100563.53;20907759;28;20165;-65
2023/07/02 12:17:36;;;;;;;4.10;2.50;;;;;;;21.55;67.20;100575.88;20939335;28;20045;-66
2023/07/02 12:27:38;;;;;;;4.72;2.70;;;;;;;21.54;66.75;100567.94;20986148;28;20144;-66
2023/07/02 12:37:47;;;;;;;2.90;1.90;;;;;;;21.55;66.67;100584.00;20964920;28;20057;-66
2023/07/02 12:47:49;;;;;;;3.15;1.80;;;;;;;21.58;66.63;100591.78;20901952;28;20053;-65
2023/07/02 12:57:51;;;;;;;3.20;2.00;;;;;;;21.58;66.30;100590.94;20902454;28;20049;-66
2023/07/02 13:07:52;;;;;;;3.65;2.15;;;;;;;21.58;66.49;100616.16;20918933;28;20449;-66
2023/07/02 13:17:54;;;;;;;3.50;1.90;;;;;;;21.57;66.56;100624.47;20945213;28;20513;-66
2023/07/02 13:27:56;;;;;;;3.05;2.03;;;;;;;21.57;66.84;100610.94;20924136;28;20379;-66
2023/07/02 13:37:59;;;;;;;3.53;2.10;;;;;;;21.57;67.26;100625.31;20916081;28;20085;-66
2023/07/02 13:48:00;;;;;;;3.25;2.08;;;;;;;21.59;67.17;100638.69;20930829;28;20068;-65
2023/07/02 13:58:02;;;;;;;5.05;1.88;;;;;;;21.60;66.88;100645.81;20934991;28;20069;-65
2023/07/02 14:08:04;;;;;;;4.50;2.35;;;;;;;21.61;66.45;100633.94;20943871;28;20084;-65
2023/07/02 14:18:06;;;;;;;2.72;2.00;;;;;;;21.65;66.43;100656.16;20942842;28;20037;-66
2023/07/02 14:28:08;;;;;;;3.05;1.73;;;;;;;21.68;66.26;100667.50;20949567;28;20055;-65
2023/07/02 14:38:10;;;;;;;4.45;2.10;;;;;;;21.70;66.26;100657.34;20931248;28;20044;-65
2023/07/02 14:48:12;;;;;;;2.65;1.80;;;;;;;21.71;66.17;100658.22;20947787;28;20065;-65
2023/07/02 14:58:15;;;;;;;2.45;1.70;;;;;;;21.72;65.54;100663.44;20940857;28;20307;-65
2023/07/02 15:08:18;;;;;;;2.40;1.75;;;;;;;21.73;64.90;100669.72;20943293;28;20058;-65
2023/07/02 15:18:20;;;;;;;3.22;2.20;;;;;;;21.73;64.75;100659.72;20927005;28;20128;-66
2023/07/02 15:28:22;;;;;;;5.95;2.17;;;;;;;21.73;65.12;100651.59;20927011;28;20093;-66
2023/07/02 15:38:23;;;;;;;3.50;2.05;;;;;;;21.74;65.49;100660.59;20923263;28;20494;-66
2023/07/02 15:48:25;;;;;;;3.08;1.80;;;;;;;21.78;67.23;100651.09;20924046;28;20044;-64
2023/07/02 15:58:29;;;;;;;4.72;2.38;;;;;;;21.86;67.38;100645.69;20907010;28;20059;-66
2023/07/02 16:08:30;;;;;;;3.93;2.50;;;;;;;21.90;67.68;100648.06;20902786;28;20041;-65
2023/07/02 16:18:32;;;;;;;7.28;3.00;;;;;;;21.94;68.30;100649.41;20886966;28;20529;-65
2023/07/02 16:28:35;;;;;;;5.43;2.70;;;;;;;21.99;69.26;100652.44;20892411;28;20095;-66
2023/07/02 16:38:37;;;;;;;5.57;2.33;;;;;;;22.03;69.20;100670.06;20908139;28;20063;-66
2023/07/02 16:48:39;;;;;;;4.47;2.10;;;;;;;22.03;69.08;100675.47;20926374;28;20090;-66
2023/07/02 16:58:40;;;;;;;4.32;2.60;;;;;;;21.99;68.18;100661.44;20922872;28;20052;-66
2023/07/02 17:08:42;;;;;;;3.53;2.15;;;;;;;21.95;67.72;100653.81;20933042;28;20110;-66
2023/07/02 17:18:44;;;;;;;4.53;2.38;;;;;;;21.90;67.42;100657.03;20935503;28;20056;-68
2023/07/02 17:28:46;;;;;;;4.10;2.28;;;;;;;21.83;66.93;100654.16;20937135;28;20449;-68
2023/07/02 17:38:47;;;;;;;4.93;2.47;;;;;;;21.77;66.10;100644.00;20943619;28;20040;-69
2023/07/02 17:48:49;;;;;;;4.95;2.78;;;;;;;21.71;65.29;100639.25;20976741;28;20049;-69
2023/07/02 17:58:53;;;;;;;4.00;2.30;;;;;;;21.66;64.70;100634.31;20981764;28;20080;-68
2023/07/02 18:08:54;;;;;;;7.60;2.15;;;;;;;21.64;64.28;100627.38;20981349;28;20056;-68
2023/07/02 18:18:57;;;;;;;3.60;2.20;;;;;;;21.57;64.26;100619.88;21048840;28;20130;-68
2023/07/02 18:28:58;;;;;;;3.40;1.90;;;;;;;21.57;64.27;100609.03;21065178;28;20048;-68
2023/07/02 18:39:00;;;;;;;3.65;2.53;;;;;;;21.56;64.01;100609.22;21068007;28;20401;-68
2023/07/02 18:49:04;;;;;;;3.78;2.42;;;;;;;21.54;64.09;100600.44;21079976;28;20051;-68
2023/07/02 18:59:06;;;;;;;4.43;2.50;;;;;;;21.51;64.18;100590.75;21079215;28;20048;-68
2023/07/02 19:09:08;;;;;;;4.38;2.85;;;;;;;21.50;63.81;100589.06;21073765;28;20472;-68
2023/07/02 19:19:09;;;;;;;3.10;2.17;;;;;;;21.47;63.22;100586.69;21069614;28;20056;-68
2023/07/02 19:29:13;;;;;;;5.00;2.63;;;;;;;21.45;63.16;100580.59;21009227;28;20565;-68
2023/07/02 19:39:17;;;;;;;4.20;2.08;;;;;;;21.38;62.92;100569.59;20978069;28;20075;-68
2023/07/02 19:49:20;;;;;;;3.22;2.10;;;;;;;21.42;63.04;100580.94;20980195;28;20057;-68
2023/07/02 19:59:21;;;;;;;5.03;2.50;;;;;;;21.39;62.92;100581.28;20983989;28;20072;-68
2023/07/02 20:09:23;;;;;;;4.82;2.63;;;;;;;21.35;62.65;100588.03;20965024;28;20468;-68
2023/07/02 20:19:24;;;;;;;4.53;2.35;;;;;;;21.34;62.73;100587.19;21025327;28;20086;-68
2023/07/02 20:29:26;;;;;;;4.25;2.38;;;;;;;21.34;62.62;100578.22;20963623;28;20058;-68
2023/07/02 20:39:28;;;;;;;3.38;2.22;;;;;;;21.34;63.12;100583.66;20943541;28;20052;-68
2023/07/02 20:49:30;;;;;;;4.72;2.20;;;;;;;21.30;63.18;100575.84;20962773;28;20045;-68
2023/07/02 20:59:32;;;;;;;3.65;2.17;;;;;;;21.28;63.21;100572.47;20963326;28;20135;-68
2023/07/02 21:09:36;;;;;;;4.18;2.65;;;;;;;21.26;63.24;100574.50;21003872;28;20052;-68
2023/07/02 21:19:38;;;;;;;3.70;2.40;;;;;;;21.26;63.09;100560.09;20945485;28;20057;-68
2023/07/02 21:29:40;;;;;;;3.72;2.65;;;;;;;21.23;62.97;100564.00;20901453;28;20314;-68
2023/07/02 21:39:43;;;;;;;3.83;2.38;;;;;;;21.20;63.11;100556.19;20936355;28;20060;-68
2023/07/02 21:49:44;;;;;;;3.97;2.65;;;;;;;21.21;63.37;100557.06;20949528;28;20508;-68
2023/07/02 21:59:46;;;;;;;3.92;2.65;;;;;;;21.19;63.07;100553.66;20953220;28;20051;-68
2023/07/02 22:09:47;;;;;;;4.05;2.47;;;;;;;21.18;63.30;100547.41;20938034;28;20523;-68
2023/07/02 22:19:49;;;;;;;5.15;3.20;;;;;;;21.17;63.07;100551.13;20945605;28;20044;-68
2023/07/02 22:29:51;;;;;;;3.85;2.70;;;;;;;21.15;63.70;100537.75;20950645;28;20434;-68
2023/07/02 22:39:52;;;;;;;4.28;2.35;;;;;;;21.15;64.18;100537.75;20970529;28;20064;-68
2023/07/02 22:49:54;;;;;;;4.97;3.10;;;;;;;21.13;64.49;100520.84;20977878;28;20252;-68
2023/07/02 22:59:57;;;;;;;4.72;2.83;;;;;;;21.12;65.14;100510.16;20968562;28;20045;-68
2023/07/02 23:09:59;;;;;;;4.38;2.90;;;;;;;21.10;64.81;100502.25;20963006;28;20121;-68
2023/07/02 23:20:01;;;;;;;5.55;3.20;;;;;;;21.09;64.74;100489.72;20983118;28;20423;-68
2023/07/02 23:30:04;;;;;;;5.47;2.95;;;;;;;21.09;64.71;100488.84;20976787;28;20110;-68
2023/07/02 23:40:10;;;;;;;5.13;2.55;;;;;;;21.07;65.06;100480.91;20974876;28;20044;-68
2023/07/02 23:50:15;;;;;;;4.85;2.70;;;;;;;21.06;65.13;100462.13;20968233;28;20047;-68
